Time;durP1;ratioP1;P1;durP2;ratioP2;P2;SDS_P1;SDS_P2;PMS_P1;PMS_P2;Temp;Humidity;BMP_temperature;BMP_pressure;BME280_temperature;BME280_humidity;BME280_pressure;Samples;Min_cycle;Max_cycle;Signal;HPM_P1;HPM_P2
2021/04/18 14:29:06;;;;;;;2.63;1.20;;;21.30;42.60;;;;;;5070675;28;20420;-45
2021/04/18 14:31:31;;;;;;;2.63;1.20;;;21.30;42.80;;;;;;5050834;28;20051;-51
2021/04/18 14:33:57;;;;;;;1.90;1.10;;;21.30;42.80;;;;;;5050205;28;20137;-50
2021/04/18 14:36:23;;;;;;;1.73;1.20;;;21.30;42.80;;;;;;5050556;28;20056;-51
2021/04/18 14:38:48;;;;;;;4.68;1.75;;;21.30;42.70;;;;;;5050532;28;20104;-47
2021/04/18 14:41:14;;;;;;;2.00;1.15;;;21.30;42.70;;;;;;5050018;28;20035;-46
2021/04/18 14:43:39;;;;;;;2.13;1.10;;;21.30;42.70;;;;;;5050424;28;20181;-49
2021/04/18 14:46:05;;;;;;;1.75;1.17;;;21.30;42.70;;;;;;5050710;28;20023;-45
2021/04/18 14:48:30;;;;;;;6.65;1.65;;;21.30;42.60;;;;;;5050030;28;20060;-47
2021/04/18 14:50:59;;;;;;;1.42;1.20;;;21.30;42.50;;;;;;5050106;28;20028;-46
2021/04/18 14:53:25;;;;;;;1.98;1.30;;;21.30;42.30;;;;;;5049760;28;20040;-44
2021/04/18 14:55:51;;;;;;;1.77;1.20;;;21.30;42.30;;;;;;5050161;28;20025;-45
2021/04/18 14:58:16;;;;;;;3.08;1.35;;;21.30;42.10;;;;;;5049964;28;20025;-46
2021/04/18 15:00:42;;;;;;;2.97;1.40;;;21.30;42.20;;;;;;5050021;28;20052;-44
2021/04/18 15:03:08;;;;;;;2.60;1.40;;;21.30;42.20;;;;;;5050068;28;20041;-45
2021/04/18 15:05:34;;;;;;;4.85;1.73;;;21.30;42.20;;;;;;5049853;28;20076;-44
2021/04/18 15:07:59;;;;;;;1.45;1.02;;;21.30;42.20;;;;;;5049657;28;20037;-47
2021/04/18 15:10:25;;;;;;;3.90;1.73;;;21.30;42.20;;;;;;5049441;28;20103;-44
2021/04/18 15:12:51;;;;;;;3.95;1.20;;;21.30;42.20;;;;;;5049589;28;20022;-48
2021/04/18 15:15:21;;;;;;;2.05;1.33;;;21.30;42.30;;;;;;5050278;28;20029;-43
2021/04/18 15:17:51;;;;;;;2.15;1.58;;;21.30;42.30;;;;;;5049647;28;20349;-44
2021/04/18 15:20:19;;;;;;;1.48;1.00;;;21.30;42.30;;;;;;5049614;28;20033;-44
2021/04/18 15:22:51;;;;;;;6.53;1.70;;;21.30;42.40;;;;;;5049752;28;20021;-45
2021/04/18 15:25:20;;;;;;;3.35;1.20;;;21.30;42.50;;;;;;5049379;28;20103;-45
2021/04/18 15:27:46;;;;;;;1.85;1.23;;;21.30;42.50;;;;;;5049314;28;20156;-46
2021/04/18 15:30:14;;;;;;;1.75;1.17;;;21.30;42.50;;;;;;5049250;28;20033;-43
2021/04/18 15:32:41;;;;;;;2.00;1.33;;;21.30;42.40;;;;;;5049155;28;20464;-50
2021/04/18 15:35:07;;;;;;;1.60;1.30;;;21.20;42.30;;;;;;5049755;28;20091;-47
2021/04/18 15:37:34;;;;;;;2.92;1.45;;;21.20;42.10;;;;;;5048979;28;20037;-46
2021/04/18 15:39:59;;;;;;;3.47;1.50;;;21.20;42.70;;;;;;5038201;28;20083;-49
2021/04/18 15:42:25;;;;;;;1.60;1.20;;;21.10;42.80;;;;;;5036077;28;20025;-53
2021/04/18 15:44:54;;;;;;;2.00;1.20;;;21.20;42.80;;;;;;5036055;28;20100;-44
2021/04/18 15:47:20;;;;;;;1.80;1.17;;;21.10;42.80;;;;;;5035954;28;20037;-47
2021/04/18 15:49:47;;;;;;;4.72;1.60;;;21.10;42.60;;;;;;5035872;28;20044;-42
2021/04/18 15:52:13;;;;;;;2.92;1.80;;;21.10;42.70;;;;;;5035988;28;20029;-48
2021/04/18 15:54:38;;;;;;;5.70;1.20;;;21.10;42.60;;;;;;5035571;28;20044;-44
2021/04/18 15:57:04;;;;;;;10.82;1.50;;;21.10;42.70;;;;;;5035438;28;20037;-45
2021/04/18 15:59:30;;;;;;;5.88;1.48;;;21.10;42.70;;;;;;5035560;28;20030;-43
2021/04/18 16:01:57;;;;;;;5.20;1.73;;;21.10;42.70;;;;;;5035365;28;20079;-43
2021/04/18 16:04:28;;;;;;;5.28;1.45;;;21.10;42.70;;;;;;5035690;28;20036;-45
2021/04/18 16:06:55;;;;;;;4.85;1.27;;;21.10;42.60;;;;;;5035060;28;20021;-45
2021/04/18 16:09:22;;;;;;;3.97;1.55;;;21.10;42.70;;;;;;5035259;28;20037;-46
2021/04/18 16:11:48;;;;;;;11.48;1.95;;;21.20;42.60;;;;;;5035340;28;20049;-46
2021/04/18 16:14:14;;;;;;;5.70;3.45;;;21.20;42.50;;;;;;5034984;28;20040;-44
2021/04/18 16:16:39;;;;;;;17.05;6.95;;;21.20;42.20;;;;;;5035273;28;20025;-45
2021/04/18 16:19:05;;;;;;;9.57;4.75;;;21.10;41.30;;;;;;5035194;28;20040;-47
2021/04/18 16:21:32;;;;;;;15.10;4.68;;;21.10;41.90;;;;;;5035296;28;20021;-45
2021/04/18 16:23:58;;;;;;;9.80;3.58;;;21.10;42.10;;;;;;5035643;28;20018;-45
2021/04/18 16:26:25;;;;;;;20.13;8.18;;;21.10;42.10;;;;;;5034755;28;20021;-46
2021/04/18 16:28:50;;;;;;;13.88;6.28;;;21.10;41.80;;;;;;5035142;28;20064;-44
2021/04/18 16:31:16;;;;;;;16.77;5.95;;;21.20;42.10;;;;;;5035098;28;20108;-45
2021/04/18 16:33:42;;;;;;;18.48;6.47;;;21.20;42.20;;;;;;5034851;28;20325;-44
2021/04/18 16:36:08;;;;;;;23.23;7.80;;;21.20;42.30;;;;;;5034843;28;20021;-44
2021/04/18 16:38:35;;;;;;;21.88;6.38;;;21.10;41.00;;;;;;5034781;28;20403;-49
2021/04/18 16:41:01;;;;;;;20.85;6.72;;;21.10;42.10;;;;;;5034793;28;20036;-45
2021/04/18 16:43:27;;;;;;;23.10;6.60;;;21.10;42.60;;;;;;5034878;28;20048;-43
2021/04/18 16:45:54;;;;;;;17.92;6.28;;;21.20;42.60;;;;;;5034104;28;20025;-44
2021/04/18 16:48:20;;;;;;;12.73;5.13;;;21.30;43.30;;;;;;5032713;28;20351;-43
2021/04/18 16:50:47;;;;;;;14.43;5.25;;;21.30;42.40;;;;;;5033563;28;20025;-45
2021/04/18 16:53:13;;;;;;;13.48;4.85;;;21.40;42.40;;;;;;5034559;28;20025;-44
2021/04/18 16:55:39;;;;;;;13.88;4.95;;;21.40;42.20;;;;;;5034496;28;20036;-45
2021/04/18 16:58:04;;;;;;;16.48;5.00;;;21.40;42.40;;;;;;5034446;28;20097;-43
2021/04/18 17:00:30;;;;;;;13.43;4.78;;;21.50;42.90;;;;;;5034310;28;20100;-44
2021/04/18 17:02:56;;;;;;;12.50;4.53;;;21.60;43.10;;;;;;5034195;28;20037;-47
2021/04/18 17:05:22;;;;;;;13.35;4.55;;;21.60;43.20;;;;;;5034639;28;20053;-44
2021/04/18 17:07:47;;;;;;;11.05;4.05;;;21.70;43.40;;;;;;5034785;28;20083;-45
2021/04/18 17:10:14;;;;;;;10.65;4.50;;;21.80;43.40;;;;;;5034321;28;20581;-48
2021/04/18 17:12:40;;;;;;;9.75;3.70;;;21.80;43.40;;;;;;5034276;28;20025;-44
2021/04/18 17:15:08;;;;;;;10.52;3.53;;;21.90;43.20;;;;;;5034343;28;20037;-43
2021/04/18 17:17:37;;;;;;;12.60;4.65;;;21.90;42.30;;;;;;5034371;28;20029;-43
2021/04/18 17:20:08;;;;;;;13.77;4.13;;;21.80;42.30;;;;;;5034094;28;20029;-44
2021/04/18 17:22:33;;;;;;;10.02;3.47;;;21.90;43.20;;;;;;5033869;28;20036;-47
2021/04/18 17:24:59;;;;;;;10.77;4.40;;;21.90;43.70;;;;;;5034061;28;20025;-46
2021/04/18 17:27:25;;;;;;;9.55;3.83;;;21.90;44.50;;;;;;5033337;28;20415;-46
2021/04/18 17:29:50;;;;;;;10.63;3.17;;;22.00;44.50;;;;;;5033500;28;20017;-45
2021/04/18 17:32:16;;;;;;;10.68;3.65;;;22.00;44.50;;;;;;5033840;28;20026;-44
2021/04/18 17:34:41;;;;;;;16.40;3.30;;;22.10;44.70;;;;;;5033598;28;20068;-43
2021/04/18 17:37:07;;;;;;;7.25;3.33;;;22.10;44.50;;;;;;5033786;28;20091;-45
2021/04/18 17:39:33;;;;;;;8.00;3.47;;;22.20;44.70;;;;;;5033996;28;20033;-46
2021/04/18 17:41:58;;;;;;;7.32;3.05;;;22.20;44.50;;;;;;5033553;28;20121;-47
2021/04/18 17:44:24;;;;;;;9.00;3.00;;;22.30;44.40;;;;;;5033737;28;20088;-49
2021/04/18 17:46:49;;;;;;;10.25;2.70;;;22.30;44.30;;;;;;5033529;28;20022;-48
2021/04/18 17:49:15;;;;;;;10.70;3.10;;;22.30;44.20;;;;;;5033805;28;20034;-46
2021/04/18 17:51:41;;;;;;;8.57;3.08;;;22.30;44.40;;;;;;5033197;28;20091;-49
2021/04/18 17:54:06;;;;;;;7.88;3.13;;;22.40;44.40;;;;;;5033335;28;20104;-47
2021/04/18 17:56:33;;;;;;;6.30;2.80;;;22.40;44.40;;;;;;5033567;28;20356;-48
2021/04/18 17:58:58;;;;;;;12.23;4.05;;;22.40;44.40;;;;;;5033374;28;20120;-46
2021/04/18 18:01:24;;;;;;;9.35;3.03;;;22.50;44.40;;;;;;5033238;28;20120;-44
2021/04/18 18:03:49;;;;;;;9.18;3.03;;;22.50;44.30;;;;;;5032953;28;20029;-47
2021/04/18 18:06:15;;;;;;;6.68;2.80;;;22.60;44.30;;;;;;5033224;28;20094;-47
2021/04/18 18:08:41;;;;;;;7.43;2.30;;;22.60;44.20;;;;;;5033243;28;20094;-45
2021/04/18 18:11:07;;;;;;;4.88;2.45;;;22.60;44.20;;;;;;5033085;28;20040;-44
2021/04/18 18:13:33;;;;;;;4.97;2.22;;;22.60;44.10;;;;;;5033251;28;20494;-45
2021/04/18 18:15:59;;;;;;;4.97;2.40;;;22.60;44.20;;;;;;5033146;28;20022;-52
2021/04/18 18:18:28;;;;;;;6.47;2.35;;;22.60;44.20;;;;;;5033284;28;20031;-49
2021/04/18 18:20:54;;;;;;;5.68;2.40;;;22.60;44.20;;;;;;5032950;28;20656;-52
2021/04/18 18:23:19;;;;;;;10.80;3.00;;;22.60;44.20;;;;;;5033055;28;20022;-44
2021/04/18 18:25:45;;;;;;;8.02;2.58;;;22.60;44.70;;;;;;5033189;28;20501;-44
2021/04/18 18:28:10;;;;;;;6.10;2.60;;;22.60;44.70;;;;;;5032879;28;20514;-46
2021/04/18 18:30:36;;;;;;;7.13;2.38;;;22.60;44.60;;;;;;5033140;28;20091;-47
2021/04/18 18:33:02;;;;;;;7.93;2.97;;;22.70;44.70;;;;;;5033119;28;20490;-44
2021/04/18 18:35:28;;;;;;;7.47;2.45;;;22.70;44.90;;;;;;5033009;28;20037;-45
2021/04/18 18:37:54;;;;;;;8.02;2.33;;;22.70;45.00;;;;;;5033204;28;20429;-45
2021/04/18 18:40:21;;;;;;;5.00;1.90;;;22.70;44.70;;;;;;5032932;28;20025;-46
2021/04/18 18:42:48;;;;;;;4.55;2.00;;;22.70;44.50;;;;;;5033004;28;20428;-46
2021/04/18 18:45:22;;;;;;;2.65;1.70;;;22.70;44.30;;;;;;5033602;28;20113;-44
2021/04/18 18:47:47;;;;;;;4.95;1.80;;;22.70;44.20;;;;;;5031842;28;20083;-47
2021/04/18 18:50:15;;;;;;;5.00;2.00;;;22.70;44.10;;;;;;5033022;28;20045;-45
2021/04/18 18:55:27;;;;;;;4.75;2.10;;;22.70;44.00;;;;;;5032669;28;20041;-46
2021/04/18 18:57:56;;;;;;;5.28;1.90;;;22.70;44.10;;;;;;5033042;28;20116;-46
2021/04/18 19:00:24;;;;;;;4.13;1.80;;;22.70;44.10;;;;;;5033053;28;20545;-49
2021/04/18 19:02:50;;;;;;;4.55;1.50;;;22.70;44.00;;;;;;5032996;28;20091;-47
2021/04/18 19:05:18;;;;;;;5.35;1.60;;;22.70;44.10;;;;;;5032822;28;20033;-46
2021/04/18 19:07:44;;;;;;;3.95;1.75;;;22.70;44.00;;;;;;5032643;28;20069;-46
2021/04/18 19:10:10;;;;;;;5.75;1.88;;;22.70;44.00;;;;;;5032918;28;20036;-48
2021/04/18 19:12:36;;;;;;;2.78;1.70;;;22.70;44.10;;;;;;5032671;28;20037;-46
2021/04/18 19:15:02;;;;;;;5.07;1.83;;;22.70;44.10;;;;;;5034552;28;20030;-47
2021/04/18 19:17:28;;;;;;;4.15;1.58;;;22.70;44.20;;;;;;5036713;28;20030;-51
2021/04/18 19:19:54;;;;;;;3.60;2.20;;;22.70;44.10;;;;;;5036244;28;20049;-47
2021/04/18 19:22:19;;;;;;;3.60;1.80;;;22.70;44.40;;;;;;5036435;28;20067;-46
2021/04/18 19:24:45;;;;;;;7.28;1.83;;;22.70;44.50;;;;;;5035673;28;20363;-44
2021/04/18 19:27:10;;;;;;;4.32;1.80;;;22.60;43.90;;;;;;5035732;28;20026;-47
2021/04/18 19:29:36;;;;;;;6.03;1.90;;;22.60;43.60;;;;;;5036140;28;20029;-48
2021/04/18 19:32:04;;;;;;;3.72;1.65;;;22.60;43.80;;;;;;5035651;28;20064;-45
2021/04/18 19:34:30;;;;;;;4.15;1.90;;;22.60;44.00;;;;;;5034923;28;20055;-46
2021/04/18 19:36:55;;;;;;;6.88;2.13;;;22.60;44.00;;;;;;5035894;28;20083;-46
2021/04/18 19:39:22;;;;;;;5.30;2.05;;;22.60;44.10;;;;;;5035757;28;20037;-51
2021/04/18 19:41:48;;;;;;;8.32;2.13;;;22.60;44.20;;;;;;5035775;28;20075;-47
2021/04/18 19:44:15;;;;;;;7.35;2.13;;;22.70;44.30;;;;;;5035551;28;20033;-50
2021/04/18 19:46:41;;;;;;;6.68;2.00;;;22.70;44.30;;;;;;5027207;28;20017;-47
2021/04/18 19:49:08;;;;;;;8.07;1.83;;;22.70;44.10;;;;;;5035269;28;20064;-54
2021/04/18 19:51:33;;;;;;;2.53;1.60;;;22.70;43.90;;;;;;5035136;28;20025;-45
2021/04/18 19:53:59;;;;;;;5.63;1.63;;;22.70;43.70;;;;;;5035621;28;20100;-47
2021/04/18 19:56:24;;;;;;;8.45;1.67;;;22.70;43.50;;;;;;5035607;28;20040;-45
2021/04/18 19:58:50;;;;;;;4.50;1.70;;;22.70;43.30;;;;;;5035507;28;20428;-48
2021/04/18 20:01:15;;;;;;;3.92;1.90;;;22.70;43.10;;;;;;5035587;28;20030;-47
2021/04/18 20:03:41;;;;;;;2.90;1.60;;;22.70;43.00;;;;;;5035298;28;20030;-49
2021/04/18 20:06:08;;;;;;;2.35;1.50;;;22.70;43.00;;;;;;5035428;28;20100;-48
2021/04/18 20:08:33;;;;;;;9.60;2.00;;;22.70;42.90;;;;;;5034969;28;20360;-48
2021/04/18 20:10:59;;;;;;;4.05;1.88;;;22.70;42.80;;;;;;5035346;28;20025;-47
2021/04/18 20:13:25;;;;;;;2.10;1.40;;;22.70;42.70;;;;;;5035439;28;20028;-47
2021/04/18 20:15:50;;;;;;;1.98;1.40;;;22.70;42.60;;;;;;5021370;28;20695;-46
2021/04/18 20:18:17;;;;;;;3.15;1.73;;;22.70;42.50;;;;;;5016291;28;20085;-47
2021/04/18 20:20:43;;;;;;;9.45;1.88;;;22.70;42.50;;;;;;5015378;28;20356;-46
2021/04/18 20:23:09;;;;;;;1.77;1.50;;;22.70;42.30;;;;;;5015797;28;20053;-47
2021/04/18 20:25:34;;;;;;;1.95;1.33;;;22.70;42.20;;;;;;5015362;28;20049;-48
2021/04/18 20:28:00;;;;;;;2.33;1.60;;;22.70;42.10;;;;;;5015051;28;20061;-50
2021/04/18 20:30:25;;;;;;;2.70;1.80;;;22.70;41.90;;;;;;5024215;28;20079;-46
2021/04/18 20:32:53;;;;;;;4.78;1.60;;;22.60;41.80;;;;;;5034947;28;20436;-47
2021/04/18 20:35:18;;;;;;;2.65;1.38;;;22.60;41.70;;;;;;5046325;28;20119;-49
2021/04/18 20:37:44;;;;;;;2.42;1.45;;;22.60;41.60;;;;;;5054941;28;20096;-47
2021/04/18 20:40:11;;;;;;;4.80;1.50;;;22.60;42.20;;;;;;5054527;28;20031;-48
2021/04/18 20:42:36;;;;;;;2.20;1.55;;;22.60;41.70;;;;;;5054642;28;20092;-46
2021/04/18 20:45:05;;;;;;;2.10;1.20;;;22.60;41.80;;;;;;5054519;28;20109;-47
2021/04/18 20:47:30;;;;;;;5.13;1.17;;;22.60;41.90;;;;;;5053083;28;20089;-47
2021/04/18 20:49:56;;;;;;;2.40;1.25;;;22.60;41.90;;;;;;5054608;28;20112;-46
2021/04/18 20:52:21;;;;;;;4.10;1.17;;;22.60;41.90;;;;;;5053551;28;20021;-49
2021/04/18 20:54:47;;;;;;;2.22;1.20;;;22.70;42.00;;;;;;5054384;28;20025;-46
2021/04/18 20:57:12;;;;;;;2.53;1.45;;;22.70;41.90;;;;;;5053803;28;20044;-45
2021/04/18 20:59:38;;;;;;;1.75;1.23;;;22.70;42.00;;;;;;5054280;28;20029;-48
2021/04/18 21:02:03;;;;;;;3.08;1.30;;;22.60;41.80;;;;;;5054179;28;20025;-48
2021/04/18 21:04:29;;;;;;;3.58;1.40;;;22.60;41.90;;;;;;5054214;28;20029;-50
2021/04/18 21:06:55;;;;;;;3.38;1.38;;;22.60;41.90;;;;;;5054313;28;20424;-49
2021/04/18 21:09:20;;;;;;;1.92;1.20;;;22.60;41.90;;;;;;5053851;28;20033;-49
2021/04/18 21:11:46;;;;;;;1.83;1.00;;;22.60;41.90;;;;;;5054136;28;20028;-49
2021/04/18 21:14:11;;;;;;;4.47;1.40;;;22.60;41.90;;;;;;5054313;28;20402;-46
2021/04/18 21:16:37;;;;;;;4.10;1.33;;;22.50;41.80;;;;;;5054004;28;20029;-46
2021/04/18 21:19:02;;;;;;;5.03;1.33;;;22.50;41.70;;;;;;5054396;28;20443;-49
2021/04/18 21:21:28;;;;;;;1.60;1.30;;;22.50;41.70;;;;;;5054290;28;20336;-46
2021/04/18 21:23:53;;;;;;;1.58;1.20;;;22.50;41.80;;;;;;5053799;28;20020;-49
2021/04/18 21:26:20;;;;;;;3.22;1.52;;;22.50;41.80;;;;;;5053801;28;20351;-46
2021/04/18 21:28:45;;;;;;;2.22;1.17;;;22.50;41.80;;;;;;5053767;28;20052;-45
2021/04/18 21:31:11;;;;;;;2.10;1.05;;;22.40;41.70;;;;;;5054018;28;20036;-46
2021/04/18 21:33:36;;;;;;;4.38;1.30;;;22.40;41.60;;;;;;5053588;28;20052;-45
2021/04/18 21:36:03;;;;;;;1.65;1.13;;;22.40;41.60;;;;;;5053307;28;20389;-49
2021/04/18 21:38:28;;;;;;;2.33;1.33;;;22.40;41.60;;;;;;5053349;28;20025;-44
2021/04/18 21:40:54;;;;;;;2.13;1.15;;;22.40;41.60;;;;;;5053124;28;20033;-45
2021/04/18 21:43:21;;;;;;;1.30;1.17;;;22.30;41.60;;;;;;5054147;28;20021;-45
2021/04/18 21:45:46;;;;;;;3.20;1.33;;;22.30;41.50;;;;;;5053446;28;20108;-47
2021/04/18 21:48:20;;;;;;;2.95;1.27;;;22.30;41.50;;;;;;5053491;28;20119;-46
2021/04/18 21:50:45;;;;;;;2.95;1.10;;;22.30;41.40;;;;;;5053882;28;20025;-49
2021/04/18 21:53:11;;;;;;;2.05;1.27;;;22.20;41.30;;;;;;5053265;28;20039;-46
2021/04/18 21:55:36;;;;;;;2.67;1.38;;;22.30;41.30;;;;;;5053394;28;20067;-46
2021/04/18 21:58:02;;;;;;;1.75;1.27;;;22.20;41.20;;;;;;5049491;28;20033;-52
2021/04/18 22:00:27;;;;;;;1.40;1.30;;;22.20;41.10;;;;;;5013948;28;20022;-48
2021/04/18 22:02:53;;;;;;;5.50;1.35;;;22.20;41.10;;;;;;5013890;28;20116;-46
2021/04/18 22:05:18;;;;;;;1.45;0.90;;;22.20;41.00;;;;;;5013502;28;20424;-46
2021/04/18 22:07:44;;;;;;;1.73;1.23;;;22.10;40.90;;;;;;5013858;28;20125;-45
2021/04/18 22:10:10;;;;;;;2.72;1.40;;;22.10;40.80;;;;;;5013030;28;20030;-46
2021/04/18 22:12:36;;;;;;;1.95;1.23;;;22.10;40.80;;;;;;5013506;28;20353;-47
2021/04/18 22:15:05;;;;;;;1.85;1.50;;;22.10;40.70;;;;;;5013625;28;20037;-45
2021/04/18 22:17:31;;;;;;;3.65;1.40;;;22.10;40.70;;;;;;5013503;28;20354;-45
2021/04/18 22:19:56;;;;;;;1.48;1.08;;;22.00;40.60;;;;;;5013500;28;20022;-46
2021/04/18 22:22:22;;;;;;;2.35;1.23;;;22.00;40.60;;;;;;5013003;28;20085;-47
2021/04/18 22:24:47;;;;;;;2.70;1.50;;;22.00;40.60;;;;;;5013147;28;20464;-44
2021/04/18 22:27:13;;;;;;;1.15;1.05;;;22.00;40.60;;;;;;5013233;28;20029;-45
2021/04/18 22:29:38;;;;;;;2.38;1.00;;;21.90;40.50;;;;;;5013035;28;20073;-46
2021/04/18 22:32:04;;;;;;;2.33;1.35;;;21.90;40.50;;;;;;5013482;28;20053;-48
2021/04/18 22:34:30;;;;;;;1.35;1.13;;;21.90;40.50;;;;;;5013305;28;20022;-46
2021/04/18 22:36:56;;;;;;;2.33;1.30;;;21.90;40.50;;;;;;5013170;28;20519;-47
2021/04/18 22:39:21;;;;;;;2.20;1.20;;;21.90;40.50;;;;;;5013163;28;20025;-46
2021/04/18 22:41:47;;;;;;;1.95;1.15;;;21.90;40.50;;;;;;5013100;28;20433;-47
2021/04/18 22:44:12;;;;;;;1.52;1.20;;;21.80;40.40;;;;;;5013332;28;20022;-46
2021/04/18 22:46:38;;;;;;;2.05;1.00;;;21.80;40.40;;;;;;5013153;28;20072;-44
2021/04/18 22:49:03;;;;;;;2.05;1.58;;;21.80;40.40;;;;;;5013465;28;20140;-45
2021/04/18 22:51:29;;;;;;;1.27;1.10;;;21.80;40.30;;;;;;5016803;28;20415;-44
2021/04/18 22:53:54;;;;;;;1.35;1.05;;;21.80;40.30;;;;;;5016928;28;20349;-47
2021/04/18 22:56:20;;;;;;;1.65;1.13;;;21.80;40.30;;;;;;5017056;28;20097;-45
2021/04/18 22:58:46;;;;;;;1.85;1.20;;;21.70;40.30;;;;;;5016704;28;20079;-44
2021/04/18 23:01:11;;;;;;;1.63;1.30;;;21.70;40.20;;;;;;5016936;28;20037;-46
2021/04/18 23:03:37;;;;;;;1.90;1.35;;;21.70;40.30;;;;;;5016244;28;20030;-45
2021/04/18 23:06:05;;;;;;;2.75;1.15;;;21.70;40.20;;;;;;5016964;28;20045;-45
2021/04/18 23:08:30;;;;;;;3.42;1.33;;;21.70;40.20;;;;;;5016475;28;20075;-45
2021/04/18 23:10:56;;;;;;;4.15;1.52;;;21.70;40.20;;;;;;5016759;28;20795;-47
2021/04/18 23:13:21;;;;;;;1.67;1.10;;;21.70;40.20;;;;;;5016731;28;20037;-47
2021/04/18 23:15:47;;;;;;;1.17;1.00;;;21.60;40.10;;;;;;5016752;28;20460;-49
2021/04/18 23:18:12;;;;;;;2.05;1.38;;;21.60;40.10;;;;;;5016519;28;20119;-45
2021/04/18 23:20:38;;;;;;;4.25;1.20;;;21.60;40.10;;;;;;5016922;28;20029;-48
2021/04/18 23:23:04;;;;;;;2.92;1.48;;;21.60;40.10;;;;;;5016320;28;20037;-46
2021/04/18 23:25:30;;;;;;;1.90;1.48;;;21.60;40.10;;;;;;5016831;28;20117;-46
2021/04/18 23:27:55;;;;;;;1.98;1.40;;;21.60;40.10;;;;;;5016154;28;20507;-45
2021/04/18 23:30:21;;;;;;;1.60;1.20;;;21.50;40.00;;;;;;5016565;28;20057;-45
2021/04/18 23:32:46;;;;;;;1.88;1.45;;;21.50;40.00;;;;;;5017125;28;20041;-47
2021/04/18 23:35:12;;;;;;;1.52;1.08;;;21.50;40.00;;;;;;5016298;28;20022;-49
2021/04/18 23:37:38;;;;;;;1.63;1.17;;;21.50;40.00;;;;;;5016102;28;20033;-48
2021/04/18 23:40:06;;;;;;;1.95;1.42;;;21.50;40.00;;;;;;5016425;28;20076;-45
2021/04/18 23:42:32;;;;;;;2.08;1.40;;;21.40;40.00;;;;;;5015681;28;20045;-46
2021/04/18 23:44:57;;;;;;;3.28;1.50;;;21.50;40.00;;;;;;5016459;28;20037;-47
2021/04/18 23:47:23;;;;;;;3.10;1.30;;;21.40;40.00;;;;;;5016557;28;20033;-45
2021/04/18 23:49:48;;;;;;;2.17;1.25;;;21.40;40.00;;;;;;5016181;28;20061;-48
2021/04/18 23:52:14;;;;;;;1.60;1.17;;;21.40;40.00;;;;;;5016685;28;20048;-47
2021/04/18 23:54:40;;;;;;;3.50;1.30;;;21.40;40.00;;;;;;5014803;28;20511;-47
2021/04/18 23:57:06;;;;;;;4.72;1.65;;;21.40;40.00;;;;;;5016134;28;20476;-47
2021/04/18 23:59:31;;;;;;;2.92;1.40;;;21.40;40.00;;;;;;5015539;28;20030;-47
